createdAt,value
2019-04-26T00:01:33.382Z,21.90
2019-04-26T00:04:02.577Z,21.90
2019-04-26T00:06:31.382Z,21.90
2019-04-26T00:09:09.407Z,21.90
2019-04-26T00:11:46.833Z,21.90
2019-04-26T00:14:42.269Z,21.80
2019-04-26T00:17:17.786Z,21.90
2019-04-26T00:19:46.515Z,21.90
2019-04-26T00:22:15.488Z,21.90
2019-04-26T00:24:44.097Z,21.90
2019-04-26T00:27:12.781Z,21.90
2019-04-26T00:29:41.379Z,21.90
2019-04-26T00:32:10.685Z,21.90
2019-04-26T00:34:40.318Z,21.90
2019-04-26T00:37:08.874Z,21.90
2019-04-26T00:39:37.409Z,21.90
2019-04-26T00:42:06.206Z,21.90
2019-04-26T00:44:34.750Z,21.90
2019-04-26T00:47:03.313Z,21.90
2019-04-26T00:49:43.140Z,21.90
2019-04-26T00:52:02.658Z,21.90
2019-04-26T00:54:31.205Z,21.80
2019-04-26T00:56:59.762Z,21.90
2019-04-26T00:59:28.306Z,21.90
2019-04-26T01:02:02.372Z,21.90
2019-04-26T01:04:30.901Z,21.90
2019-04-26T01:07:00.034Z,21.90
2019-04-26T01:09:28.797Z,21.90
2019-04-26T01:11:57.366Z,21.90
2019-04-26T01:14:26.207Z,22.00
2019-04-26T01:16:55.078Z,21.90
2019-04-26T01:19:24.556Z,21.90
2019-04-26T01:21:56.268Z,21.90
2019-04-26T01:24:25.363Z,21.90
2019-04-26T01:26:54.054Z,21.90
2019-04-26T01:29:23.715Z,21.90
2019-04-26T01:32:03.113Z,21.90
2019-04-26T01:34:31.905Z,21.80
2019-04-26T01:37:00.741Z,21.90
2019-04-26T01:39:29.638Z,21.80
2019-04-26T01:42:05.866Z,21.80
2019-04-26T01:44:59.328Z,21.80
2019-04-26T01:47:28.424Z,21.80
2019-04-26T01:49:57.020Z,21.80
2019-04-26T01:52:25.825Z,21.80
2019-04-26T01:54:54.362Z,21.80
2019-04-26T01:57:23.689Z,21.90
2019-04-26T01:59:54.829Z,21.80
2019-04-26T02:02:37.461Z,21.90
2019-04-26T02:05:09.738Z,21.90
2019-04-26T02:07:41.786Z,21.90
2019-04-26T02:10:11.637Z,21.80
2019-04-26T02:12:40.201Z,21.80
2019-04-26T02:15:08.742Z,21.80
2019-04-26T02:17:37.537Z,21.90
2019-04-26T02:20:06.093Z,21.90
2019-04-26T02:22:41.778Z,21.90
2019-04-26T02:25:10.310Z,21.90
2019-04-26T02:27:38.857Z,21.80
2019-04-26T02:30:08.380Z,21.90
2019-04-26T02:32:37.256Z,21.90
2019-04-26T02:35:05.871Z,21.90
2019-04-26T02:37:36.279Z,21.80
2019-04-26T02:40:05.733Z,21.80
2019-04-26T02:42:39.973Z,21.90
2019-04-26T02:45:50.356Z,21.80
2019-04-26T02:48:28.344Z,21.80
2019-04-26T02:51:01.030Z,21.90
2019-04-26T02:54:02.281Z,21.80
2019-04-26T02:56:35.785Z,21.80
2019-04-26T02:59:44.421Z,21.80
2019-04-26T03:02:33.287Z,21.80
2019-04-26T03:05:07.509Z,21.90
2019-04-26T03:08:02.984Z,21.90
2019-04-26T03:10:36.631Z,21.80
2019-04-26T03:13:05.666Z,21.90
2019-04-26T03:15:55.569Z,21.90
2019-04-26T03:18:48.001Z,21.90
2019-04-26T03:21:24.962Z,21.90
2019-04-26T03:24:01.927Z,21.80
2019-04-26T03:26:56.535Z,21.80
2019-04-26T03:29:37.622Z,21.80
2019-04-26T03:32:39.122Z,21.80
2019-04-26T03:35:41.249Z,21.80
2019-04-26T03:38:23.170Z,21.80
2019-04-26T03:41:18.990Z,21.80
2019-04-26T03:44:09.957Z,21.80
2019-04-26T03:46:59.495Z,21.80
2019-04-26T03:49:54.398Z,21.80
2019-04-26T03:52:49.682Z,21.80
2019-04-26T03:56:04.647Z,21.90
2019-04-26T03:59:00.462Z,21.90
2019-04-26T04:01:29.558Z,21.90
2019-04-26T04:04:17.453Z,21.90
2019-04-26T04:07:02.465Z,21.90
2019-04-26T04:09:18.015Z,21.90
2019-04-26T04:12:10.205Z,21.90
2019-04-26T04:14:40.661Z,21.90
2019-04-26T04:17:34.699Z,21.80
2019-04-26T04:20:23.403Z,21.90
2019-04-26T04:23:16.729Z,21.90
2019-04-26T04:25:47.796Z,21.80
2019-04-26T04:28:36.524Z,21.80
2019-04-26T04:31:15.748Z,21.80
2019-04-26T04:33:57.880Z,21.80
2019-04-26T04:36:32.782Z,21.80
2019-04-26T04:39:12.475Z,21.90
2019-04-26T04:42:02.394Z,21.80
2019-04-26T04:45:00.161Z,21.80
2019-04-26T04:47:35.211Z,21.90
2019-04-26T04:50:52.257Z,21.80
2019-04-26T04:53:49.599Z,21.90
2019-04-26T04:56:41.558Z,21.80
2019-04-26T04:59:11.086Z,21.80
2019-04-26T05:02:20.234Z,21.80
2019-04-26T05:05:11.941Z,21.80
2019-04-26T05:08:18.185Z,21.80
2019-04-26T05:10:54.494Z,21.80
2019-04-26T05:13:28.101Z,21.90
2019-04-26T05:16:35.119Z,21.90
2019-04-26T05:19:28.643Z,21.90
2019-04-26T05:22:28.714Z,21.90
2019-04-26T05:25:41.481Z,21.80
2019-04-26T05:28:16.342Z,21.90
2019-04-26T05:31:12.390Z,21.80
2019-04-26T05:34:13.799Z,21.80
2019-04-26T05:37:09.509Z,21.80
2019-04-26T05:39:47.734Z,21.90
2019-04-26T05:42:34.550Z,21.90
2019-04-26T05:45:47.674Z,21.90
2019-04-26T05:48:53.935Z,21.90
2019-04-26T05:51:58.942Z,21.90
2019-04-26T05:54:51.151Z,21.90
2019-04-26T05:57:52.833Z,21.90
2019-04-26T06:00:42.643Z,21.80
2019-04-26T06:03:24.867Z,21.90
2019-04-26T06:06:06.059Z,21.90
2019-04-26T06:09:14.689Z,21.90
2019-04-26T06:11:52.879Z,21.90
2019-04-26T06:14:57.021Z,21.90
2019-04-26T06:17:58.203Z,21.90
2019-04-26T06:20:42.074Z,22.00
2019-04-26T06:23:33.422Z,21.90
2019-04-26T06:26:31.541Z,22.00
2019-04-26T06:29:05.352Z,21.90
2019-04-26T06:31:57.979Z,21.90
2019-04-26T06:34:37.225Z,21.90
2019-04-26T06:37:21.966Z,21.90
2019-04-26T06:40:24.906Z,21.90
2019-04-26T06:43:06.378Z,21.90
2019-04-26T06:46:05.683Z,22.00
2019-04-26T06:49:10.578Z,22.00
2019-04-26T06:51:43.021Z,22.00
2019-04-26T06:54:20.367Z,21.90
2019-04-26T06:57:13.428Z,21.90
2019-04-26T07:00:00.494Z,22.00
2019-04-26T07:02:38.661Z,22.00
2019-04-26T07:05:27.801Z,22.00
2019-04-26T07:08:29.107Z,22.10
2019-04-26T07:11:43.637Z,22.00
2019-04-26T07:14:43.950Z,22.10
2019-04-26T07:17:16.430Z,22.00
2019-04-26T07:20:36.130Z,22.00
2019-04-26T07:23:51.895Z,22.00
2019-04-26T07:26:54.253Z,22.00
2019-04-26T07:29:58.195Z,22.00
2019-04-26T07:33:08.351Z,22.00
2019-04-26T07:35:44.259Z,22.00
2019-04-26T07:39:13.295Z,22.00
2019-04-26T07:42:25.778Z,22.00
2019-04-26T07:45:15.870Z,22.10
2019-04-26T07:48:19.403Z,22.10
2019-04-26T07:51:27.919Z,22.00
2019-04-26T07:54:40.016Z,22.00
2019-04-26T07:57:43.129Z,22.10
2019-04-26T08:00:16.158Z,22.00
2019-04-26T08:03:01.896Z,22.00
2019-04-26T08:05:42.193Z,21.90
2019-04-26T08:08:11.081Z,22.00
2019-04-26T08:10:39.753Z,21.90
2019-04-26T08:13:11.248Z,22.00
2019-04-26T08:15:54.842Z,22.00
2019-04-26T08:18:37.737Z,22.00
2019-04-26T08:21:18.460Z,22.00
2019-04-26T08:23:56.419Z,22.00
2019-04-26T08:26:26.390Z,22.00
2019-04-26T08:28:56.636Z,22.10
2019-04-26T08:31:26.235Z,22.10
2019-04-26T08:34:00.593Z,22.10
2019-04-26T08:36:30.734Z,22.10
2019-04-26T08:39:00.005Z,22.10
2019-04-26T08:41:28.562Z,22.10
2019-04-26T08:44:22.404Z,22.10
2019-04-26T08:47:13.672Z,22.10
2019-04-26T08:49:50.522Z,22.10
2019-04-26T08:52:19.270Z,22.10
2019-04-26T08:54:54.245Z,22.10
2019-04-26T08:57:23.509Z,22.10
2019-04-26T08:59:53.904Z,22.10
2019-04-26T09:02:40.684Z,22.20
2019-04-26T09:05:33.829Z,22.10
2019-04-26T09:08:03.993Z,22.20
2019-04-26T09:10:32.628Z,22.20
2019-04-26T09:13:01.260Z,22.10
2019-04-26T09:15:56.367Z,22.10
2019-04-26T09:18:27.741Z,22.10
2019-04-26T09:20:55.506Z,22.10
2019-04-26T09:23:40.379Z,22.10
2019-04-26T09:26:08.724Z,22.10
2019-04-26T09:29:00.765Z,22.10
2019-04-26T09:31:44.886Z,22.10
2019-04-26T09:34:14.907Z,22.10
2019-04-26T09:36:43.525Z,22.10
2019-04-26T09:39:12.690Z,22.10
2019-04-26T09:41:41.291Z,22.10
2019-04-26T09:44:17.652Z,22.10
2019-04-26T09:47:05.297Z,22.10
2019-04-26T09:49:50.788Z,22.10
2019-04-26T09:52:23.349Z,22.20
2019-04-26T09:54:52.258Z,22.20
2019-04-26T09:57:21.346Z,22.20
2019-04-26T09:59:50.137Z,22.20
2019-04-26T10:02:18.781Z,22.20
2019-04-26T10:04:47.638Z,22.20
2019-04-26T10:07:16.278Z,22.20
2019-04-26T10:09:44.824Z,22.20
2019-04-26T10:12:31.499Z,22.20
2019-04-26T10:15:14.051Z,22.20
2019-04-26T10:17:42.726Z,22.20
2019-04-26T10:20:11.273Z,22.20
2019-04-26T10:22:39.835Z,22.20
2019-04-26T10:25:16.315Z,22.30
2019-04-26T10:27:40.739Z,22.20
2019-04-26T10:30:11.073Z,22.20
2019-04-26T10:32:39.702Z,22.30
2019-04-26T10:35:08.257Z,22.30
2019-04-26T10:37:39.664Z,22.30
2019-04-26T10:40:07.138Z,22.30
2019-04-26T10:42:35.762Z,22.40
2019-04-26T10:45:06.294Z,22.30
2019-04-26T10:47:38.479Z,22.30
2019-04-26T10:50:05.803Z,22.30
2019-04-26T10:52:45.476Z,22.40
2019-04-26T10:55:30.995Z,22.40
2019-04-26T10:58:14.710Z,22.40
2019-04-26T11:00:44.493Z,22.40
2019-04-26T11:03:13.067Z,22.40
2019-04-26T11:05:41.614Z,22.40
2019-04-26T11:08:10.430Z,22.40
2019-04-26T11:10:48.550Z,22.40
2019-04-26T11:13:09.288Z,22.50
2019-04-26T11:15:38.099Z,22.50
2019-04-26T11:18:06.654Z,22.50
2019-04-26T11:20:35.235Z,22.50
2019-04-26T11:23:03.785Z,22.40
2019-04-26T11:25:32.713Z,22.50
2019-04-26T11:28:01.409Z,22.40
2019-04-26T11:30:30.185Z,22.50
2019-04-26T11:32:58.850Z,22.50
2019-04-26T11:35:29.266Z,22.40
2019-04-26T11:37:57.711Z,22.50
2019-04-26T11:40:26.258Z,22.50
2019-04-26T11:42:55.078Z,22.40
2019-04-26T11:45:23.625Z,22.50
2019-04-26T11:47:56.184Z,22.40
2019-04-26T11:50:22.468Z,22.50
2019-04-26T11:52:51.049Z,22.50
2019-04-26T11:55:19.594Z,22.50
2019-04-26T11:57:49.172Z,22.40
2019-04-26T12:00:27.621Z,22.40
2019-04-26T12:02:56.261Z,22.40
2019-04-26T12:05:55.853Z,22.50
2019-04-26T12:08:29.682Z,22.50
2019-04-26T12:10:58.246Z,22.50
2019-04-26T12:13:26.830Z,22.50
2019-04-26T12:15:55.714Z,22.50
2019-04-26T12:18:24.300Z,22.50
2019-04-26T12:20:53.186Z,22.50
2019-04-26T12:23:21.906Z,22.50
2019-04-26T12:25:50.512Z,22.50
2019-04-26T12:28:19.138Z,22.50
2019-04-26T12:30:47.730Z,22.50
2019-04-26T12:33:16.291Z,22.50
2019-04-26T12:35:44.851Z,22.40
2019-04-26T12:38:13.497Z,22.30
2019-04-26T12:40:45.922Z,22.40
2019-04-26T12:43:15.483Z,22.40
2019-04-26T12:46:08.143Z,22.40
2019-04-26T12:48:36.734Z,22.40
2019-04-26T12:51:08.256Z,22.40
2019-04-26T12:53:35.636Z,22.40
2019-04-26T12:56:05.037Z,22.40
2019-04-26T12:58:33.702Z,22.40
2019-04-26T13:01:02.421Z,22.40
2019-04-26T13:03:31.001Z,22.40
2019-04-26T13:05:59.817Z,22.40
2019-04-26T13:08:28.408Z,22.40
2019-04-26T13:11:15.076Z,22.30
2019-04-26T13:13:45.549Z,22.30
2019-04-26T13:16:26.293Z,22.40
2019-04-26T13:18:53.154Z,22.30
2019-04-26T13:21:21.733Z,22.30
2019-04-26T13:23:50.294Z,22.20
2019-04-26T13:26:18.870Z,22.20
2019-04-26T13:28:47.422Z,22.30
2019-04-26T13:31:16.014Z,22.30
2019-04-26T13:33:44.554Z,22.20
2019-04-26T13:36:13.140Z,22.20
2019-04-26T13:38:43.586Z,22.10
2019-04-26T13:41:12.065Z,22.20
2019-04-26T13:43:40.618Z,22.20
2019-04-26T13:46:18.186Z,22.20
2019-04-26T13:49:00.205Z,22.10
2019-04-26T13:51:30.333Z,22.10
2019-04-26T13:53:58.899Z,22.00
2019-04-26T13:56:27.458Z,22.00
2019-04-26T13:58:58.296Z,21.90
2019-04-26T14:01:26.766Z,21.90
2019-04-26T14:03:55.390Z,21.80
2019-04-26T14:06:23.955Z,21.90
2019-04-26T14:08:53.954Z,21.90
2019-04-26T14:11:28.205Z,21.80
2019-04-26T14:13:55.486Z,21.80
2019-04-26T14:16:23.701Z,21.90
2019-04-26T14:18:53.619Z,21.90
2019-04-26T14:21:22.318Z,21.90
2019-04-26T14:23:58.809Z,21.90
2019-04-26T14:26:35.311Z,21.80
2019-04-26T14:29:03.586Z,21.80
2019-04-26T14:31:32.170Z,21.80
2019-04-26T14:34:01.321Z,21.70
2019-04-26T14:36:31.250Z,21.80
2019-04-26T14:39:05.913Z,21.80
2019-04-26T14:41:30.187Z,21.80
2019-04-26T14:43:58.889Z,21.80
2019-04-26T14:46:27.458Z,21.90
2019-04-26T14:49:02.722Z,21.80
2019-04-26T14:51:26.310Z,21.80
2019-04-26T14:53:55.659Z,21.70
2019-04-26T14:56:28.818Z,21.70
2019-04-26T14:58:55.086Z,21.70
2019-04-26T15:01:52.273Z,21.70
2019-04-26T15:04:42.745Z,21.70
2019-04-26T15:07:12.328Z,21.60
2019-04-26T15:09:42.793Z,21.70
2019-04-26T15:12:14.030Z,21.60
2019-04-26T15:14:42.268Z,21.60
2019-04-26T15:17:12.483Z,21.60
2019-04-26T15:19:45.931Z,21.60
2019-04-26T15:22:12.229Z,21.50
2019-04-26T15:24:42.198Z,21.60
2019-04-26T15:27:11.116Z,21.50
2019-04-26T15:29:39.661Z,21.50
2019-04-26T15:32:08.462Z,21.50
2019-04-26T15:34:37.037Z,21.50
2019-04-26T15:37:05.947Z,21.50
2019-04-26T15:39:45.962Z,21.50
2019-04-26T15:42:23.740Z,21.50
2019-04-26T15:45:03.829Z,21.50
2019-04-26T15:47:47.212Z,21.50
2019-04-26T15:50:26.652Z,21.40
2019-04-26T15:52:55.210Z,21.40
2019-04-26T15:55:23.770Z,21.50
2019-04-26T15:57:53.081Z,21.40
2019-04-26T16:00:22.474Z,21.50
2019-04-26T16:02:52.808Z,21.50
2019-04-26T16:05:24.326Z,21.50
2019-04-26T16:07:52.970Z,21.50
2019-04-26T16:10:25.597Z,21.50
2019-04-26T16:12:52.420Z,21.60
2019-04-26T16:15:21.054Z,21.60
2019-04-26T16:17:49.893Z,21.60
2019-04-26T16:20:18.554Z,21.60
2019-04-26T16:22:49.091Z,21.60
2019-04-26T16:25:17.659Z,21.70
2019-04-26T16:27:46.223Z,21.70
2019-04-26T16:30:32.020Z,21.70
2019-04-26T16:33:14.814Z,21.70
2019-04-26T16:35:43.456Z,21.70
2019-04-26T16:38:29.634Z,21.70
2019-04-26T16:40:58.204Z,21.70
2019-04-26T16:43:37.054Z,21.70
2019-04-26T16:45:57.021Z,21.70
2019-04-26T16:48:25.879Z,21.70
2019-04-26T16:50:54.714Z,21.70
2019-04-26T16:53:43.831Z,21.70
2019-04-26T16:55:53.600Z,21.70
2019-04-26T16:58:24.569Z,21.70
2019-04-26T17:00:57.643Z,21.70
2019-04-26T17:03:25.932Z,21.80
2019-04-26T17:06:04.655Z,21.80
2019-04-26T17:08:23.869Z,21.80
2019-04-26T17:10:56.583Z,21.70
2019-04-26T17:13:24.022Z,21.80
2019-04-26T17:15:57.990Z,21.70
2019-04-26T17:18:26.902Z,21.70
2019-04-26T17:20:53.949Z,21.70
2019-04-26T17:23:41.602Z,21.70
2019-04-26T17:26:23.993Z,21.70
2019-04-26T17:28:55.406Z,21.80
2019-04-26T17:31:22.914Z,21.70
2019-04-26T17:33:51.473Z,21.70
2019-04-26T17:36:20.280Z,21.80
2019-04-26T17:38:50.587Z,21.70
2019-04-26T17:41:19.310Z,21.70
2019-04-26T17:43:52.029Z,21.70
2019-04-26T17:46:19.391Z,21.70
2019-04-26T17:48:49.403Z,21.70
2019-04-26T17:51:22.775Z,21.70
2019-04-26T17:53:58.792Z,21.70
2019-04-26T17:56:21.366Z,21.70
2019-04-26T17:58:54.326Z,21.70
2019-04-26T18:01:39.928Z,21.70
2019-04-26T18:03:55.455Z,21.70
2019-04-26T18:06:29.582Z,21.70
2019-04-26T18:08:54.921Z,21.70
2019-04-26T18:11:24.753Z,21.70
2019-04-26T18:13:52.353Z,21.70
2019-04-26T18:16:22.003Z,21.70
2019-04-26T18:19:13.478Z,21.70
2019-04-26T18:21:59.650Z,21.70
2019-04-26T18:24:27.668Z,21.70
2019-04-26T18:26:59.113Z,21.70
2019-04-26T18:29:29.276Z,21.70
2019-04-26T18:31:59.189Z,21.70
2019-04-26T18:34:30.501Z,21.70
2019-04-26T18:37:02.004Z,21.70
2019-04-26T18:39:29.727Z,21.80
2019-04-26T18:42:02.399Z,21.70
2019-04-26T18:44:36.903Z,21.80
2019-04-26T18:47:20.514Z,21.70
2019-04-26T18:49:52.124Z,21.70
2019-04-26T18:52:19.410Z,21.80
2019-04-26T18:54:53.794Z,21.70
2019-04-26T18:57:23.854Z,21.80
2019-04-26T18:59:52.975Z,21.70
2019-04-26T19:02:23.642Z,21.80
2019-04-26T19:04:52.972Z,21.80
2019-04-26T19:07:31.964Z,21.80
2019-04-26T19:10:02.964Z,21.80
2019-04-26T19:12:26.810Z,21.80
2019-04-26T19:15:11.326Z,21.80
2019-04-26T19:17:44.385Z,21.70
2019-04-26T19:20:32.352Z,21.80
2019-04-26T19:23:02.982Z,21.70
2019-04-26T19:25:34.455Z,21.80
2019-04-26T19:28:04.518Z,21.70
2019-04-26T19:30:32.351Z,21.70
2019-04-26T19:33:02.106Z,21.70
2019-04-26T19:35:32.812Z,21.70
2019-04-26T19:38:03.126Z,21.80
2019-04-26T19:40:31.943Z,21.70
2019-04-26T19:43:01.934Z,21.70
2019-04-26T19:45:56.730Z,21.70
2019-04-26T19:48:31.446Z,21.70
2019-04-26T19:51:19.030Z,21.70
2019-04-26T19:53:58.337Z,21.70
2019-04-26T19:56:31.588Z,21.80
2019-04-26T19:59:00.486Z,21.80
2019-04-26T20:01:29.013Z,21.80
2019-04-26T20:03:57.582Z,21.70
2019-04-26T20:06:26.876Z,21.80
2019-04-26T20:08:55.555Z,21.70
2019-04-26T20:11:24.366Z,21.80
2019-04-26T20:13:55.146Z,21.80
2019-04-26T20:16:25.807Z,21.70
2019-04-26T20:18:53.774Z,21.80
2019-04-26T20:21:22.345Z,21.80
2019-04-26T20:23:54.298Z,21.70
2019-04-26T20:26:22.608Z,21.70
2019-04-26T20:28:51.468Z,21.70
2019-04-26T20:31:29.986Z,21.70
2019-04-26T20:33:58.626Z,21.70
2019-04-26T20:36:27.190Z,21.70
2019-04-26T20:38:55.981Z,21.70
2019-04-26T20:41:24.543Z,21.70
2019-04-26T20:44:05.145Z,21.70
2019-04-26T20:46:25.094Z,21.80
2019-04-26T20:48:53.878Z,21.80
2019-04-26T20:51:24.091Z,21.70
2019-04-26T20:53:52.691Z,21.70
2019-04-26T20:56:22.563Z,21.70
2019-04-26T20:58:52.268Z,21.80
2019-04-26T21:01:22.305Z,21.70
2019-04-26T21:03:51.733Z,21.80
2019-04-26T21:06:22.017Z,21.70
2019-04-26T21:08:52.257Z,21.80
2019-04-26T21:11:21.759Z,21.70
2019-04-26T21:13:51.902Z,21.70
2019-04-26T21:16:22.100Z,21.70
2019-04-26T21:18:52.396Z,21.70
2019-04-26T21:21:21.755Z,21.70
2019-04-26T21:23:51.203Z,21.70
2019-04-26T21:26:35.786Z,21.70
2019-04-26T21:29:24.368Z,21.70
2019-04-26T21:32:24.551Z,21.70
2019-04-26T21:34:54.143Z,21.70
2019-04-26T21:37:39.072Z,21.70
2019-04-26T21:40:24.155Z,21.70
2019-04-26T21:42:47.486Z,21.70
2019-04-26T21:45:16.099Z,21.70
2019-04-26T21:47:44.717Z,21.70
2019-04-26T21:50:14.900Z,21.80
2019-04-26T21:52:45.599Z,21.70
2019-04-26T21:55:14.014Z,21.70
2019-04-26T21:57:43.905Z,21.70
2019-04-26T22:00:24.931Z,21.70
2019-04-26T22:02:53.513Z,21.70
2019-04-26T22:05:22.065Z,21.70
2019-04-26T22:07:50.862Z,21.70
2019-04-26T22:10:26.045Z,21.70
2019-04-26T22:12:54.605Z,21.70
2019-04-26T22:15:35.844Z,21.70
2019-04-26T22:18:06.144Z,21.70
2019-04-26T22:20:39.838Z,21.70
2019-04-26T22:23:39.695Z,21.70
2019-04-26T22:26:09.499Z,21.70
2019-04-26T22:28:38.098Z,21.70
2019-04-26T22:31:08.438Z,21.70
2019-04-26T22:33:36.925Z,21.70
2019-04-26T22:36:05.624Z,21.70
2019-04-26T22:38:34.503Z,21.70
2019-04-26T22:41:03.203Z,21.70
2019-04-26T22:43:54.051Z,21.80
2019-04-26T22:46:44.393Z,21.70
2019-04-26T22:49:05.775Z,21.70
2019-04-26T22:51:35.363Z,21.70
2019-04-26T22:54:06.238Z,21.70
2019-04-26T22:56:37.106Z,21.70
2019-04-26T22:59:07.730Z,21.70
2019-04-26T23:01:35.006Z,21.70
2019-04-26T23:04:04.618Z,21.70
2019-04-26T23:06:33.780Z,21.70
2019-04-26T23:09:02.623Z,21.70
2019-04-26T23:11:31.181Z,21.70
2019-04-26T23:14:24.041Z,21.70
2019-04-26T23:17:08.207Z,21.70
2019-04-26T23:19:43.617Z,21.70
2019-04-26T23:22:12.839Z,21.70
2019-04-26T23:24:42.804Z,21.70
2019-04-26T23:27:14.832Z,21.70
2019-04-26T23:29:43.575Z,21.70
2019-04-26T23:32:18.461Z,21.70
2019-04-26T23:34:44.451Z,21.70
2019-04-26T23:37:13.302Z,21.70
2019-04-26T23:39:48.384Z,21.70
2019-04-26T23:42:16.226Z,21.70
2019-04-26T23:44:44.095Z,21.70
2019-04-26T23:47:22.367Z,21.70
2019-04-26T23:49:43.446Z,21.70
2019-04-26T23:52:14.549Z,21.70
2019-04-26T23:54:42.269Z,21.70
2019-04-26T23:57:10.818Z,21.70
2019-04-26T23:59:39.434Z,21.70
